Station Historical Data
Daily Summary for February 25, 2012 Units:  Metric    English   Both
« Previous Day
Next Day »
Daily Weekly Monthly Yearly Custom
  High: Low: Average:
Temperature: 10.9 °C -1.6 °C 4.5 °C
Dew Point: -1.2 °C -12 °C -6.9 °C
Humidity: 85% 20% 50%
Wind Speed: 32.2km/h 0km/h 6.8km/h
Wind Gust: 41.8km/h - -
Wind- - WSW
Pressure: 1027.3 hPa 1021.6 hPa -
Precipitation: 0 mm    
Historical Graphs
 
 
Tabular Data for February 25, 2012
Time Temperature Dew Point Pressure Wind Wind Speed Wind Gust Humidity Rainfall Rate (Hourly) Conditions
00:00 1.6 °C -3.5 °C 1021.6 hPa Calm     69% 0 mm
00:01 1.5 °C -3.6 °C 1021.6 hPa Calm     69% 0 mm
00:06 1.6 °C -3.4 °C 1021.6 hPa Calm     69% 0 mm
00:10 1.6 °C -3.7 °C 1021.6 hPa Calm     68% 0 mm
00:15 1.5 °C -3.6 °C 1021.6 hPa Calm     69% 0 mm
00:20 1.4 °C -3.3 °C 1021.6 hPa Calm     71% 0 mm
00:25 1.3 °C -2.8 °C 1021.9 hPa Calm     74% 0 mm
00:30 1.3 °C -2.7 °C 1021.9 hPa Calm     75% 0 mm
00:35 1.2 °C -2.8 °C 1021.9 hPa Calm     75% 0 mm
00:40 1.1 °C -3 °C 1021.9 hPa Calm     74% 0 mm
00:45 0.9 °C -3.3 °C 1021.9 hPa Calm     73% 0 mm
00:50 0.8 °C -3.4 °C 1021.9 hPa Calm     73% 0 mm
00:55 0.8 °C -3.4 °C 1021.9 hPa Calm     73% 0 mm
01:00 0.8 °C -3.4 °C 1021.9 hPa Calm     73% 0 mm
01:05 0.7 °C -3.4 °C 1021.9 hPa Calm     74% 0 mm
01:10 0.7 °C -3.4 °C 1022.2 hPa Calm     74% 0 mm
01:15 0.7 °C -3.4 °C 1022.2 hPa Calm     74% 0 mm
01:20 0.7 °C -3.4 °C 1022.2 hPa Calm     74% 0 mm
01:25 0.7 °C -3.4 °C 1022.2 hPa Calm     74% 0 mm
01:31 0.6 °C -3.5 °C 1022.2 hPa Calm     74% 0 mm
01:36 0.6 °C -3.3 °C 1022.2 hPa Calm     75% 0 mm
01:41 0.4 °C -3.4 °C 1022.2 hPa Calm     75% 0 mm
01:46 0.3 °C -3.4 °C 1022.2 hPa Calm     76% 0 mm
01:51 0.3 °C -3.4 °C 1022.2 hPa Calm     76% 0 mm
01:56 0.1 °C -3.7 °C 1022.6 hPa Calm     76% 0 mm
02:01 -0.2 °C -3.4 °C 1022.6 hPa Calm     79% 0 mm
02:06 -0.3 °C -2.9 °C 1022.6 hPa Calm     83% 0 mm
02:11 -0.6 °C -3.1 °C 1022.6 hPa Calm     83% 0 mm
02:16 -0.7 °C -3.1 °C 1022.6 hPa Calm     84% 0 mm
02:21 -0.5 °C -2.7 °C 1022.6 hPa Calm     85% 0 mm
02:26 -0.6 °C -3.1 °C 1022.6 hPa Calm     83% 0 mm
02:31 -0.6 °C -3.3 °C 1022.6 hPa Calm     82% 0 mm
02:36 -0.6 °C -3.3 °C 1022.6 hPa Calm     82% 0 mm
02:41 -0.5 °C -3.5 °C 1022.6 hPa Calm     80% 0 mm
02:46 -0.5 °C -3.7 °C 1022.6 hPa Calm     79% 0 mm
02:51 -0.5 °C -3.7 °C 1022.9 hPa Calm     79% 0 mm
02:56 -0.4 °C -3.6 °C 1022.9 hPa Calm     79% 0 mm
03:01 -0.4 °C -3.6 °C 1022.9 hPa Calm     79% 0 mm
03:06 -0.3 °C -3.6 °C 1022.9 hPa Calm     79% 0 mm
03:11 -0.3 °C -3.6 °C 1022.9 hPa Calm     79% 0 mm
03:16 -0.4 °C -3.6 °C 1022.9 hPa Calm     79% 0 mm
03:21 -0.6 °C -3.7 °C 1022.9 hPa Calm     79% 0 mm
03:26 -0.4 °C -3.6 °C 1022.9 hPa Calm     79% 0 mm
03:31 -0.3 °C -3.6 °C 1022.9 hPa Calm     79% 0 mm
03:36 -0.3 °C -3.7 °C 1022.9 hPa Calm     78% 0 mm
03:41 -0.3 °C -3.7 °C 1022.9 hPa Calm     78% 0 mm
03:47 -0.3 °C -3.7 °C 1022.9 hPa Calm     78% 0 mm
03:52 -0.2 °C -3.6 °C 1023.2 hPa Calm     78% 0 mm
03:57 -0.3 °C -3.7 °C 1022.9 hPa Calm     78% 0 mm
04:02 -0.4 °C -3.6 °C 1023.2 hPa Calm     79% 0 mm
04:07 -0.4 °C -3.6 °C 1023.2 hPa Calm     79% 0 mm
04:12 -0.6 °C -3.7 °C 1023.2 hPa Calm     79% 0 mm
04:17 -0.6 °C -3.8 °C 1023.2 hPa Calm     79% 0 mm
04:22 -0.7 °C -3.7 °C 1023.2 hPa Calm     80% 0 mm
04:27 -0.7 °C -3.7 °C 1023.2 hPa SW 3.2 km/h 4.8 km/h 80% 0 mm
04:32 -0.7 °C -3.7 °C 1023.2 hPa SW 3.2 km/h 4.8 km/h 80% 0 mm
04:37 -0.6 °C -3.6 °C 1023.2 hPa SSW 3.2 km/h 4.8 km/h 80% 0 mm
04:42 -0.6 °C -3.6 °C 1023.2 hPa SW 3.2 km/h 6.4 km/h 80% 0 mm
04:47 -0.8 °C -3.8 °C 1023.6 hPa SW 3.2 km/h 6.4 km/h 80% 0 mm
04:52 -0.9 °C -3.9 °C 1023.6 hPa SSW 3.2 km/h 4.8 km/h 80% 0 mm
04:57 -0.9 °C -3.7 °C 1023.6 hPa SSW 3.2 km/h 3.2 km/h 81% 0 mm
05:02 -0.8 °C -3.8 °C 1023.6 hPa SSW 1.6 km/h 3.2 km/h 80% 0 mm
05:07 -0.9 °C -3.9 °C 1023.6 hPa SSW 3.2 km/h 3.2 km/h 80% 0 mm
05:12 -0.9 °C -3.9 °C 1023.6 hPa SW 3.2 km/h 4.8 km/h 80% 0 mm
05:17 -1 °C -4 °C 1023.6 hPa SW 3.2 km/h 4.8 km/h 80% 0 mm
05:22 -1.1 °C -3.9 °C 1023.9 hPa SW 3.2 km/h 4.8 km/h 81% 0 mm
05:27 -1.2 °C -3.8 °C 1023.9 hPa SW 4.8 km/h 4.8 km/h 82% 0 mm
05:32 -1.2 °C -3.8 °C 1023.9 hPa SSW 1.6 km/h 6.4 km/h 82% 0 mm
05:38 -1.2 °C -3.9 °C 1023.9 hPa SW 4.8 km/h 6.4 km/h 82% 0 mm
05:43 -1.3 °C -3.9 °C 1023.9 hPa SW 4.8 km/h 6.4 km/h 82% 0 mm
05:48 -1.4 °C -3.9 °C 1023.9 hPa SW 3.2 km/h 6.4 km/h 83% 0 mm
05:53 -1.4 °C -4.1 °C 1023.9 hPa SW 3.2 km/h 4.8 km/h 82% 0 mm
05:58 -1.5 °C -4 °C 1023.9 hPa SW 3.2 km/h 4.8 km/h 83% 0 mm
06:03 -1.6 °C -4.1 °C 1023.9 hPa SSW 1.6 km/h 3.2 km/h 83% 0 mm
06:08 -1.6 °C -4.1 °C 1023.9 hPa Calm   3.2 km/h 83% 0 mm
06:13 -1.6 °C -4.1 °C 1023.9 hPa SW 1.6 km/h 3.2 km/h 83% 0 mm
06:18 -1.6 °C -4.1 °C 1023.9 hPa Calm   3.2 km/h 83% 0 mm
06:23 -1.6 °C -4.1 °C 1023.9 hPa SW 1.6 km/h 3.2 km/h 83% 0 mm
06:28 -1.6 °C -4.1 °C 1023.6 hPa SW 1.6 km/h 3.2 km/h 83% 0 mm
06:33 -1.6 °C -4.1 °C 1023.9 hPa SSW 3.2 km/h 4.8 km/h 83% 0 mm
06:38 -1.6 °C -4.1 °C 1023.9 hPa SW 1.6 km/h 4.8 km/h 83% 0 mm
06:43 -1.4 °C -3.9 °C 1023.9 hPa WSW 3.2 km/h 4.8 km/h 83% 0 mm
06:48 -1.3 °C -3.8 °C 1023.9 hPa SW 3.2 km/h 4.8 km/h 83% 0 mm
06:53 -1.2 °C -3.9 °C 1023.9 hPa SW 3.2 km/h 6.4 km/h 82% 0 mm
06:58 -1.2 °C -3.8 °C 1024.3 hPa SW 4.8 km/h 4.8 km/h 82% 0 mm
07:03 -1.2 °C -3.8 °C 1024.3 hPa SSW 3.2 km/h 4.8 km/h 82% 0 mm
07:08 -1.3 °C -3.9 °C 1024.3 hPa SW 3.2 km/h 3.2 km/h 82% 0 mm
07:13 -1.3 °C -4 °C 1024.3 hPa SW 3.2 km/h 4.8 km/h 82% 0 mm
07:18 -1.4 °C -4.2 °C 1024.3 hPa SW 1.6 km/h 3.2 km/h 81% 0 mm
07:23 -1.4 °C -4.1 °C 1024.3 hPa SW 3.2 km/h 3.2 km/h 82% 0 mm
07:28 -1.5 °C -4.2 °C 1024.3 hPa SW 3.2 km/h 3.2 km/h 82% 0 mm
07:33 -1.6 °C -4.2 °C 1024.3 hPa SW 1.6 km/h 3.2 km/h 82% 0 mm
07:38 -1.6 °C -4.2 °C 1024.3 hPa SW 3.2 km/h 4.8 km/h 82% 0 mm
07:43 -1.5 °C -4.3 °C 1024.6 hPa SW 3.2 km/h 4.8 km/h 81% 0 mm
07:48 -1.2 °C -4.1 °C 1024.6 hPa SW 6.4 km/h 6.4 km/h 81% 0 mm
07:53 -0.8 °C -3.8 °C 1024.9 hPa SW 4.8 km/h 6.4 km/h 80% 0 mm
07:58 -0.8 °C -3.8 °C 1024.9 hPa SSW 3.2 km/h 4.8 km/h 80% 0 mm
08:03 -0.7 °C -3.8 °C 1024.9 hPa SSW 3.2 km/h 6.4 km/h 79% 0 mm
08:08 -0.4 °C -3.6 °C 1024.9 hPa SW 4.8 km/h 6.4 km/h 79% 0 mm
08:13 -0.2 °C -3.4 °C 1024.9 hPa SW 6.4 km/h 8 km/h 79% 0 mm
08:19 0.1 °C -3.3 °C 1024.9 hPa SW 8 km/h 8 km/h 78% 0 mm
08:24 0.3 °C -3.1 °C 1024.9 hPa SW 8 km/h 9.7 km/h 78% 0 mm
08:29 0.4 °C -3 °C 1025.3 hPa WSW 9.7 km/h 11.3 km/h 78% 0 mm
08:34 0.6 °C -3 °C 1025.3 hPa SSW 6.4 km/h 9.7 km/h 77% 0 mm
08:39 0.7 °C -3 °C 1025.3 hPa SSW 8 km/h 11.3 km/h 76% 0 mm
08:44 1 °C -2.8 °C 1025.3 hPa SSW 8 km/h 9.7 km/h 76% 0 mm
08:49 1.3 °C -2.5 °C 1025.6 hPa SW 6.4 km/h 9.7 km/h 76% 0 mm
08:54 1.6 °C -2.3 °C 1025.6 hPa West 8 km/h 11.3 km/h 75% 0 mm
08:59 2 °C -2.2 °C 1025.6 hPa SW 11.3 km/h 11.3 km/h 74% 0 mm
09:04 2.4 °C -2.2 °C 1025.6 hPa SW 4.8 km/h 11.3 km/h 72% 0 mm
09:09 2.8 °C -1.8 °C 1025.6 hPa SW 11.3 km/h 14.5 km/h 72% 0 mm
09:14 3.2 °C -1.2 °C 1026 hPa West 4.8 km/h 9.7 km/h 73% 0 mm
09:19 3.6 °C -1.6 °C 1026 hPa West 9.7 km/h 12.9 km/h 69% 0 mm
09:24 4 °C -1.6 °C 1026 hPa West 9.7 km/h 12.9 km/h 67% 0 mm
09:29 4.4 °C -1.6 °C 1026 hPa West 12.9 km/h 14.5 km/h 65% 0 mm
09:34 4.7 °C -1.8 °C 1026 hPa West 12.9 km/h 16.1 km/h 63% 0 mm
09:39 4.7 °C -3.1 °C 1026 hPa WNW 11.3 km/h 20.9 km/h 57% 0 mm
09:44 5.1 °C -2.1 °C 1026 hPa WSW 8 km/h 12.9 km/h 60% 0 mm
09:49 5.2 °C -2.6 °C 1026 hPa West 11.3 km/h 16.1 km/h 57% 0 mm
09:54 5.4 °C -2.7 °C 1026 hPa WNW 12.9 km/h 16.1 km/h 56% 0 mm
09:59 5.4 °C -3.2 °C 1026 hPa WNW 9.7 km/h 22.5 km/h 54% 0 mm
10:04 5.7 °C -2.2 °C 1026.3 hPa West 14.5 km/h 19.3 km/h 57% 0 mm
10:09 5.7 °C -3.4 °C 1026 hPa WNW 9.7 km/h 24.1 km/h 52% 0 mm
10:14 5.8 °C -3.3 °C 1026 hPa WNW 19.3 km/h 20.9 km/h 52% 0 mm
10:19 6 °C -3.1 °C 1026 hPa WNW 8 km/h 20.9 km/h 52% 0 mm
10:24 6.2 °C -3.4 °C 1026 hPa WNW 20.9 km/h 24.1 km/h 50% 0 mm
10:29 6.6 °C -3.6 °C 1026 hPa WNW 14.5 km/h 19.3 km/h 48% 0 mm
10:34 6.7 °C -4.1 °C 1026.3 hPa WNW 17.7 km/h 27.4 km/h 46% 0 mm
10:39 6.6 °C -4.2 °C 1026.3 hPa West 12.9 km/h 22.5 km/h 46% 0 mm
10:44 7 °C -3.6 °C 1026.3 hPa West 8 km/h 22.5 km/h 47% 0 mm
10:49 7.3 °C -3.5 °C 1026.3 hPa WNW 11.3 km/h 16.1 km/h 46% 0 mm
10:54 7.4 °C -3.7 °C 1026.3 hPa West 11.3 km/h 22.5 km/h 45% 0 mm
10:59 7.4 °C -3.4 °C 1026.3 hPa WNW 12.9 km/h 17.7 km/h 46% 0 mm
11:04 7.5 °C -3.9 °C 1026.3 hPa WNW 12.9 km/h 16.1 km/h 44% 0 mm
11:10 7.7 °C -3.8 °C 1026.3 hPa NW 24.1 km/h 24.1 km/h 44% 0 mm
11:15 7.7 °C -3.8 °C 1026.3 hPa West 14.5 km/h 19.3 km/h 44% 0 mm
11:20 7.9 °C -3.6 °C 1026.6 hPa WNW 16.1 km/h 17.7 km/h 44% 0 mm
11:25 8.1 °C -4.7 °C 1026.6 hPa West 14.5 km/h 20.9 km/h 40% 0 mm
11:30 8.1 °C -4.7 °C 1026.6 hPa NW 9.7 km/h 27.4 km/h 40% 0 mm
11:35 8.5 °C -4 °C 1026.6 hPa NW 11.3 km/h 17.7 km/h 41% 0 mm
11:40 8.7 °C -5.2 °C 1027 hPa NW 17.7 km/h 20.9 km/h 37% 0 mm
11:45 8.5 °C -5.7 °C 1027 hPa WNW 11.3 km/h 19.3 km/h 36% 0 mm
11:50 8.9 °C -4.9 °C 1026.6 hPa WNW 12.9 km/h 16.1 km/h 37% 0 mm
11:55 9.1 °C -4.8 °C 1027 hPa West 17.7 km/h 17.7 km/h 37% 0 mm
12:00 9.2 °C -4.4 °C 1027 hPa West 11.3 km/h 19.3 km/h 38% 0 mm
12:05 9.3 °C -4.3 °C 1027 hPa NW 14.5 km/h 22.5 km/h 38% 0 mm
12:10 9.4 °C -5.3 °C 1026.6 hPa West 16.1 km/h 24.1 km/h 35% 0 mm
12:15 9.4 °C -5.3 °C 1027 hPa WNW 20.9 km/h 24.1 km/h 35% 0 mm
12:20 9.3 °C -5.3 °C 1026.6 hPa West 12.9 km/h 25.7 km/h 35% 0 mm
12:25 9.4 °C -4.9 °C 1026.6 hPa West 32.2 km/h 32.2 km/h 36% 0 mm
12:30 9.3 °C -6.5 °C 1026.6 hPa West 12.9 km/h 30.6 km/h 32% 0 mm
12:35 9.6 °C -7.2 °C 1026.6 hPa WSW 14.5 km/h 24.1 km/h 30% 0 mm
12:40 9.6 °C -5.6 °C 1026.6 hPa SW 17.7 km/h 20.9 km/h 34% 0 mm
12:45 9.5 °C -7.7 °C 1026.6 hPa West 25.7 km/h 33.8 km/h 29% 0 mm
12:50 9.6 °C -6.7 °C 1026.6 hPa WSW 19.3 km/h 22.5 km/h 31% 0 mm
12:55 9.7 °C -8.9 °C 1026.6 hPa WSW 20.9 km/h 29 km/h 26% 0 mm
13:00 9.7 °C -8.9 °C 1026.6 hPa WNW 20.9 km/h 30.6 km/h 26% 0 mm
13:05 9.9 °C -9.2 °C 1026.3 hPa WSW 20.9 km/h 30.6 km/h 25% 0 mm
13:10 10.1 °C -9.6 °C 1026.3 hPa WNW 9.7 km/h 32.2 km/h 24% 0 mm
13:15 9.9 °C -10.3 °C 1026.3 hPa WNW 17.7 km/h 25.7 km/h 23% 0 mm
13:21 9.7 °C -11 °C 1026.3 hPa West 20.9 km/h 30.6 km/h 22% 0 mm
13:26 9.9 °C -11.4 °C 1026 hPa NW 17.7 km/h 32.2 km/h 21% 0 mm
13:31 9.9 °C -11.4 °C 1026 hPa WNW 17.7 km/h 33.8 km/h 21% 0 mm
13:36 10.1 °C -11.2 °C 1026 hPa NW 19.3 km/h 30.6 km/h 21% 0 mm
13:41 10.2 °C -10.6 °C 1026 hPa WNW 16.1 km/h 29 km/h 22% 0 mm
13:46 10.3 °C -9.9 °C 1025.6 hPa WNW 11.3 km/h 33.8 km/h 23% 0 mm
13:51 10.3 °C -9.9 °C 1026 hPa WSW 11.3 km/h 22.5 km/h 23% 0 mm
13:56 10.4 °C -11.6 °C 1026 hPa NW 16.1 km/h 25.7 km/h 20% 0 mm
14:01 10.6 °C -10.2 °C 1026 hPa West 17.7 km/h 22.5 km/h 22% 0 mm
14:06 10.6 °C -10.2 °C 1026 hPa WNW 16.1 km/h 20.9 km/h 22% 0 mm
14:11 10.4 °C -10.4 °C 1025.6 hPa West 12.9 km/h 22.5 km/h 22% 0 mm
14:16 10.3 °C -10.4 °C 1025.6 hPa WNW 19.3 km/h 29 km/h 22% 0 mm
14:21 10.6 °C -10.2 °C 1025.6 hPa WSW 14.5 km/h 24.1 km/h 22% 0 mm
14:26 10.6 °C -9.7 °C 1025.6 hPa WSW 22.5 km/h 24.1 km/h 23% 0 mm
14:31 10.4 °C -9.3 °C 1025.6 hPa West 17.7 km/h 25.7 km/h 24% 0 mm
14:36 10.5 °C -10.3 °C 1025.6 hPa WNW 12.9 km/h 27.4 km/h 22% 0 mm
14:41 10.6 °C -9.2 °C 1025.6 hPa WSW 22.5 km/h 35.4 km/h 24% 0 mm
14:46 10.3 °C -11.1 °C 1025.3 hPa WNW 22.5 km/h 35.4 km/h 21% 0 mm
14:51 10.6 °C -10.2 °C 1025.6 hPa West 25.7 km/h 41.8 km/h 22% 0 mm
14:56 10.6 °C -10.8 °C 1025.6 hPa NW 19.3 km/h 27.4 km/h 21% 0 mm
15:01 10.6 °C -10.3 °C 1025.6 hPa WNW 22.5 km/h 22.5 km/h 22% 0 mm
15:06 10.5 °C -11.5 °C 1025.6 hPa NW 12.9 km/h 24.1 km/h 20% 0 mm
15:11 10.5 °C -11.5 °C 1025.3 hPa NW 14.5 km/h 35.4 km/h 20% 0 mm
15:16 10.7 °C -11.4 °C 1025.6 hPa West 19.3 km/h 22.5 km/h 20% 0 mm
15:21 10.7 °C -10.8 °C 1025.3 hPa West 16.1 km/h 17.7 km/h 21% 0 mm
15:26 10.9 °C -11.2 °C 1025.3 hPa NW 11.3 km/h 20.9 km/h 20% 0 mm
15:31 10.8 °C -10.1 °C 1025.3 hPa West 17.7 km/h 29 km/h 22% 0 mm
15:36 10.8 °C -10.6 °C 1025.3 hPa NNW 16.1 km/h 17.7 km/h 21% 0 mm
15:41 10.7 °C -11.4 °C 1025.6 hPa WNW 19.3 km/h 25.7 km/h 20% 0 mm
15:46 10.2 °C -11.2 °C 1025.6 hPa NNW 19.3 km/h 19.3 km/h 21% 0 mm
15:51 10.1 °C -11.2 °C 1025.3 hPa WNW 12.9 km/h 24.1 km/h 21% 0 mm
15:56 10.3 °C -9.9 °C 1025.3 hPa West 12.9 km/h 17.7 km/h 23% 0 mm
16:02 10.4 °C -9.8 °C 1025.3 hPa West 6.4 km/h 19.3 km/h 23% 0 mm
16:07 10.7 °C -10.2 °C 1025.6 hPa NW 9.7 km/h 17.7 km/h 22% 0 mm
16:12 10.4 °C -11.6 °C 1025.6 hPa WNW 6.4 km/h 19.3 km/h 20% 0 mm
16:17 10.5 °C -10.9 °C 1025.6 hPa WSW 17.7 km/h 20.9 km/h 21% 0 mm
16:22 10.5 °C -10.9 °C 1025.3 hPa West 17.7 km/h 29 km/h 21% 0 mm
16:27 10.3 °C -11.1 °C 1025.3 hPa West 19.3 km/h 30.6 km/h 21% 0 mm
16:32 10.3 °C -11.1 °C 1025.3 hPa NW 14.5 km/h 25.7 km/h 21% 0 mm
16:37 10.2 °C -11.7 °C 1025.6 hPa NW 6.4 km/h 24.1 km/h 20% 0 mm
16:42 10.4 °C -11.6 °C 1025.3 hPa WNW 16.1 km/h 20.9 km/h 20% 0 mm
16:47 10.3 °C -11.7 °C 1025.3 hPa WNW 14.5 km/h 25.7 km/h 20% 0 mm
16:52 10.3 °C -11.7 °C 1025.3 hPa West 9.7 km/h 19.3 km/h 20% 0 mm
16:57 10 °C -11.9 °C 1025.3 hPa WNW 12.9 km/h 20.9 km/h 20% 0 mm
17:02 10.2 °C -11.2 °C 1025.6 hPa WNW 11.3 km/h 16.1 km/h 21% 0 mm
17:07 10.4 °C -11.6 °C 1025.6 hPa WNW 9.7 km/h 17.7 km/h 20% 0 mm
17:12 10.4 °C -11 °C 1025.6 hPa NW 19.3 km/h 19.3 km/h 21% 0 mm
17:17 9.9 °C -12 °C 1025.6 hPa WNW 11.3 km/h 19.3 km/h 20% 0 mm
17:22 9.8 °C -11.4 °C 1025.6 hPa NNW 20.9 km/h 20.9 km/h 21% 0 mm
17:27 9.9 °C -10.8 °C 1025.6 hPa NW 11.3 km/h 22.5 km/h 22% 0 mm
17:32 9.7 °C -11.6 °C 1025.6 hPa NNW 12.9 km/h 17.7 km/h 21% 0 mm
17:38 9.3 °C -11.3 °C 1025.6 hPa WNW 6.4 km/h 16.1 km/h 22% 0 mm
17:43 9.6 °C -11.7 °C 1025.6 hPa NW 6.4 km/h 16.1 km/h 21% 0 mm
17:48 9.8 °C -10.9 °C 1025.6 hPa NW 11.3 km/h 14.5 km/h 22% 0 mm
17:53 9.8 °C -10.9 °C 1025.6 hPa WNW 4.8 km/h 14.5 km/h 22% 0 mm
17:58 9.8 °C -10.9 °C 1025.6 hPa NW 9.7 km/h 11.3 km/h 22% 0 mm
18:03 9.7 °C -11 °C 1025.6 hPa WNW 14.5 km/h 16.1 km/h 22% 0 mm
18:08 9.5 °C -11.2 °C 1026 hPa WNW 11.3 km/h 17.7 km/h 22% 0 mm
18:13 9.3 °C -11.3 °C 1025.6 hPa West 6.4 km/h 12.9 km/h 22% 0 mm
18:18 9 °C -11.1 °C 1025.6 hPa WNW 9.7 km/h 12.9 km/h 23% 0 mm
18:23 8.7 °C -10.8 °C 1025.6 hPa NW 4.8 km/h 6.4 km/h 24% 0 mm
18:28 8.4 °C -10 °C 1026 hPa NNW 4.8 km/h 4.8 km/h 26% 0 mm
18:33 7.9 °C -11.4 °C 1026 hPa NW 8 km/h 9.7 km/h 24% 0 mm
18:38 7.7 °C -11.1 °C 1026 hPa NW 4.8 km/h 8 km/h 25% 0 mm
18:43 7.6 °C -11.2 °C 1026 hPa WNW 6.4 km/h 8 km/h 25% 0 mm
18:48 7.6 °C -11.2 °C 1026.3 hPa WNW 6.4 km/h 11.3 km/h 25% 0 mm
18:53 7.5 °C -11.3 °C 1026.3 hPa WNW 3.2 km/h 8 km/h 25% 0 mm
18:58 7.3 °C -11.4 °C 1026.3 hPa WNW 1.6 km/h 4.8 km/h 25% 0 mm
19:03 7.2 °C -11.6 °C 1026.3 hPa NW 1.6 km/h 3.2 km/h 25% 0 mm
19:08 7.1 °C -11.2 °C 1026.3 hPa NW 1.6 km/h 4.8 km/h 26% 0 mm
19:13 6.9 °C -11.3 °C 1026.3 hPa NW 3.2 km/h 4.8 km/h 26% 0 mm
19:18 6.8 °C -11.3 °C 1026.3 hPa NW 1.6 km/h 3.2 km/h 26% 0 mm
19:23 6.7 °C -11 °C 1026.3 hPa NW 3.2 km/h 4.8 km/h 27% 0 mm
19:28 6.7 °C -11.4 °C 1026.3 hPa NW 1.6 km/h 6.4 km/h 26% 0 mm
19:33 6.6 °C -11.6 °C 1026.6 hPa NW 1.6 km/h 3.2 km/h 26% 0 mm
19:38 6.6 °C -11.6 °C 1026.6 hPa NW 3.2 km/h 3.2 km/h 26% 0 mm
19:44 6.4 °C -11.7 °C 1026.6 hPa Calm   1.6 km/h 26% 0 mm
19:49 6.3 °C -11.8 °C 1026.6 hPa Calm     26% 0 mm
19:54 6.3 °C -11.8 °C 1026.6 hPa WNW 1.6 km/h 1.6 km/h 26% 0 mm
19:59 6.2 °C -11.4 °C 1026.6 hPa WNW 1.6 km/h 1.6 km/h 27% 0 mm
20:04 6.1 °C -11.9 °C 1026.6 hPa NW 1.6 km/h 1.6 km/h 26% 0 mm
20:09 5.9 °C -11.2 °C 1026.6 hPa Calm   1.6 km/h 28% 0 mm
20:14 5.6 °C -11.9 °C 1027 hPa SW 1.6 km/h 1.6 km/h 27% 0 mm
20:19 5.7 °C -11.9 °C 1027 hPa Calm   1.6 km/h 27% 0 mm
20:24 5.6 °C -11.4 °C 1027 hPa Calm     28% 0 mm
20:29 5.3 °C -10.4 °C 1027 hPa Calm     31% 0 mm
20:34 4.8 °C -10.5 °C 1027 hPa Calm     32% 0 mm
20:39 4.2 °C -11 °C 1027 hPa Calm     32% 0 mm
20:44 3.8 °C -11.3 °C 1027 hPa Calm     32% 0 mm
20:49 4.1 °C -11.5 °C 1027 hPa Calm   1.6 km/h 31% 0 mm
20:54 4.3 °C -10.9 °C 1026.6 hPa Calm     32% 0 mm
20:59 4.2 °C -11.8 °C 1027 hPa Calm     30% 0 mm
21:04 3.8 °C -11.7 °C 1027 hPa Calm     31% 0 mm
21:09 3.7 °C -11.5 °C 1027 hPa NNE 1.6 km/h 3.2 km/h 32% 0 mm
21:14 4 °C -11.6 °C 1027 hPa Calm   1.6 km/h 31% 0 mm
21:19 4.2 °C -11.4 °C 1027 hPa Calm   1.6 km/h 31% 0 mm
21:24 4.2 °C -10.7 °C 1027 hPa Calm     33% 0 mm
21:29 4.1 °C -11.2 °C 1027 hPa Calm     32% 0 mm
21:34 3.8 °C -10.9 °C 1027 hPa Calm     33% 0 mm
21:39 4 °C -10.4 °C 1027 hPa NNE 1.6 km/h 3.2 km/h 34% 0 mm
21:44 4.3 °C -10.2 °C 1027 hPa NNE 1.6 km/h 3.2 km/h 34% 0 mm
21:49 4.3 °C -9.8 °C 1027 hPa NNE 1.6 km/h 3.2 km/h 35% 0 mm
21:54 4.3 °C -9.8 °C 1027 hPa NNE 3.2 km/h 4.8 km/h 35% 0 mm
21:59 4.3 °C -9.4 °C 1027 hPa NNE 4.8 km/h 4.8 km/h 36% 0 mm
22:04 4.2 °C -9.5 °C 1027 hPa NE 3.2 km/h 3.2 km/h 36% 0 mm
22:09 4.3 °C -9.5 °C 1027 hPa NNE 1.6 km/h 3.2 km/h 36% 0 mm
22:14 4.3 °C -9.1 °C 1027 hPa NNE 3.2 km/h 3.2 km/h 37% 0 mm
22:19 4.2 °C -9.6 °C 1027 hPa NNW 4.8 km/h 4.8 km/h 36% 0 mm
22:24 3.9 °C -9.4 °C 1027.3 hPa NNE 1.6 km/h 3.2 km/h 37% 0 mm
22:29 3.8 °C -9.2 °C 1027 hPa North 3.2 km/h 3.2 km/h 38% 0 mm
22:34 3.6 °C -9.4 °C 1027.3 hPa North 1.6 km/h 1.6 km/h 38% 0 mm
22:40 3.6 °C -9.4 °C 1027.3 hPa Calm   1.6 km/h 38% 0 mm
22:45 3.6 °C -9.1 °C 1027.3 hPa Calm   1.6 km/h 39% 0 mm
22:50 3.6 °C -9.4 °C 1027 hPa North 3.2 km/h 3.2 km/h 38% 0 mm
22:55 3.7 °C -9 °C 1027.3 hPa North 1.6 km/h 3.2 km/h 39% 0 mm
23:00 3.7 °C -9.3 °C 1027.3 hPa North 1.6 km/h 1.6 km/h 38% 0 mm
23:05 3.7 °C -9.3 °C 1027.3 hPa NNE 1.6 km/h 1.6 km/h 38% 0 mm
23:10 3.7 °C -9.3 °C 1027 hPa North 3.2 km/h 3.2 km/h 38% 0 mm
23:15 3.8 °C -8.9 °C 1027 hPa North 3.2 km/h 4.8 km/h 39% 0 mm
23:20 3.6 °C -9.1 °C 1027.3 hPa NNE 4.8 km/h 4.8 km/h 39% 0 mm
23:25 3.6 °C -8.7 °C 1027.3 hPa NNE 3.2 km/h 3.2 km/h 40% 0 mm
23:30 3.6 °C -8.7 °C 1027 hPa NE 3.2 km/h 4.8 km/h 40% 0 mm
23:35 3.8 °C -8.9 °C 1027.3 hPa NNE 3.2 km/h 6.4 km/h 39% 0 mm
23:36 3.8 °C -8.9 °C 1027.3 hPa NE 3.2 km/h 4.8 km/h 39% 0 mm
23:41 3.7 °C -8.9 °C 1027.3 hPa NNE 1.6 km/h 3.2 km/h 39% 0 mm
23:46 3.8 °C -8.9 °C 1027.3 hPa NE 1.6 km/h 4.8 km/h 39% 0 mm
23:51 3.7 °C -8.9 °C 1027.3 hPa NNE 3.2 km/h 3.2 km/h 39% 0 mm
23:56 3.6 °C -8.7 °C 1027.3 hPa NNE 3.2 km/h 3.2 km/h 40% 0 mm
Compliments of Weather Underground